Aérodrome :
LOGIN :

S'inscrire | Disclaimer

   EN    FR    IT 

 










Légende :    VFR   VFR Marginal   IFR   IFR Intensif   IFR Très Intensif
Visi : 
Plafond : 
>= 8 km
>= 3000ft
5 à 8 km
1000 à 3000 ft
1500m à 5 km
500 à 1000 ft
800 à 1500m
200 à 500 ft
< 800m
< 200 ft
Symboles :   Orages  Brouillard  Fortes neiges  Fortes précipitations  Vent > 20 kt
SIGMETs :   Divers  Orages  Givrage  Turbulence  Onde Orograph.  Cendres Volcan.






- Altitude de l'aérodrome : 776 ft
- Code IATA : RMS


ETAR - Ramstein Air Base

DERNIER METAR :
  • 122056Z AUTO 00000KT 9999 CLR 17/14 A3022 RMK AO2 SLP228 T01670140 52017 FZRANO $

METARs EXPIRÉS :
  • 121956Z AUTO 32005KT 9999 CLR 19/14 A3020 RMK AO2 SLP222 T01910143 FZRANO $
  • 121856Z AUTO 31008KT 9999 CLR 21/15 A3019 RMK AO2 SLP218 T02130149 FZRANO $

TAF TAF ETAR
Valide du 12 à 18h jusqu'au 14 à 00h UTC


121800Z 1218/1324 32006KT 9999 SCT050 QNH3010INS
BECMG 1306/1307 02009KT 9999 FEW030 QNH3032INS TX28/1314Z TN12/1304Z



MET'MAP, la Météo Aéronautique d'un coup d'oeil ! - Copyright ORBIFLY Décembre 2007 - Disclaimer

ORBIFLY MET'MAP TEAM :

Programmation & Développement : Alexandra Zaïnal
Sur une idée originale de : Baudouin d'Aumeries
Assistance à la programmation : Marc-Olivier Méhu
Soutien technique & logistique : Manuel Goepfert

Contact : metmap@orbifly.com




SOURCES & CREDITS :

   NOAA